Time;durP1;ratioP1;P1;durP2;ratioP2;P2;SDS_P1;SDS_P2;PMS_P1;PMS_P2;Temp;Humidity;BMP_temperature;BMP_pressure;BME280_temperature;BME280_humidity;BME280_pressure;Samples;Min_cycle;Max_cycle;Signal;HPM_P1;HPM_P2
2022/11/14 00:00:56;;;;;;;0.32;0.30;;;;;;;3.29;62.68;100238.59;5033992;28;20033;-54
2022/11/14 00:03:21;;;;;;;0.52;0.30;;;;;;;3.20;62.40;100239.00;5042799;28;20112;-54
2022/11/14 00:05:47;;;;;;;0.57;0.30;;;;;;;3.21;62.20;100239.84;5052174;28;20124;-54
2022/11/14 00:08:15;;;;;;;0.57;0.30;;;;;;;3.20;61.96;100233.72;5051233;28;20029;-51
2022/11/14 00:10:41;;;;;;;0.52;0.22;;;;;;;3.20;61.67;100232.84;5053546;28;20043;-50
2022/11/14 00:13:06;;;;;;;1.13;0.30;;;;;;;3.22;61.56;100237.16;5045942;28;20025;-51
2022/11/14 00:15:32;;;;;;;1.13;0.35;;;;;;;3.20;61.58;100239.00;5044838;28;20063;-53
2022/11/14 00:17:57;;;;;;;0.70;0.40;;;;;;;3.20;61.49;100239.00;5051015;28;20083;-51
2022/11/14 00:20:22;;;;;;;1.08;0.40;;;;;;;3.11;62.01;100229.69;5034074;28;20083;-48
2022/11/14 00:22:48;;;;;;;1.27;0.50;;;;;;;3.15;61.96;100233.91;5033175;28;20033;-52
2022/11/14 00:25:13;;;;;;;0.60;0.25;;;;;;;3.13;62.31;100237.53;5045045;28;20029;-53
2022/11/14 00:27:39;;;;;;;1.10;0.30;;;;;;;3.16;61.66;100237.44;5051557;28;20542;-53
2022/11/14 00:30:05;;;;;;;0.85;0.22;;;;;;;3.18;61.06;100235.56;5038026;28;20478;-52
2022/11/14 00:32:31;;;;;;;1.13;0.30;;;;;;;3.22;61.02;100237.16;5041157;28;20065;-53
2022/11/14 00:34:56;;;;;;;1.48;0.20;;;;;;;3.32;60.61;100249.97;5032996;28;20072;-60
2022/11/14 00:37:21;;;;;;;1.85;0.30;;;;;;;3.35;59.38;100237.47;5034765;28;20037;-53
2022/11/14 00:39:47;;;;;;;0.75;0.20;;;;;;;3.37;59.10;100242.69;5048696;28;20123;-50
2022/11/14 00:42:12;;;;;;;0.32;0.10;;;;;;;3.29;58.58;100243.88;5046709;28;20053;-52
2022/11/14 00:44:38;;;;;;;0.25;0.20;;;;;;;3.30;58.99;100245.59;5036403;28;20439;-54
2022/11/14 00:47:03;;;;;;;0.80;0.30;;;;;;;3.13;58.35;100235.75;5052567;28;20039;-53
2022/11/14 00:49:29;;;;;;;0.50;0.30;;;;;;;3.23;58.68;100252.09;5038650;28;20037;-53
2022/11/14 00:51:54;;;;;;;0.88;0.32;;;;;;;3.22;58.14;100258.31;5045256;28;20483;-52
2022/11/14 00:54:20;;;;;;;0.25;0.15;;;;;;;3.24;58.24;100269.69;5032877;28;20086;-54
2022/11/14 00:56:45;;;;;;;1.95;0.20;;;;;;;3.11;58.36;100266.72;5050675;28;20078;-52
2022/11/14 00:59:11;;;;;;;0.57;0.22;;;;;;;3.17;58.33;100284.13;5041096;28;20041;-54
2022/11/14 01:01:36;;;;;;;1.52;0.20;;;;;;;3.22;57.33;100271.56;5032606;28;20061;-54
2022/11/14 01:04:02;;;;;;;0.80;0.30;;;;;;;3.16;57.81;100274.47;5032788;28;20454;-56
2022/11/14 01:06:27;;;;;;;2.55;0.20;;;;;;;3.08;57.60;100271.28;5032900;28;20064;-54
2022/11/14 01:08:53;;;;;;;2.75;0.28;;;;;;;3.14;57.28;100276.31;5040620;28;20420;-55
2022/11/14 01:11:20;;;;;;;1.38;0.47;;;;;;;3.15;57.75;100280.69;5032463;28;20041;-54
2022/11/14 01:13:46;;;;;;;1.50;0.20;;;;;;;3.13;57.95;100282.50;5047456;28;20029;-51
2022/11/14 01:16:12;;;;;;;3.20;0.20;;;;;;;3.15;57.97;100283.34;5043817;28;20176;-52
2022/11/14 01:18:38;;;;;;;2.75;0.30;;;;;;;3.22;56.78;100291.84;5046608;28;20488;-50
2022/11/14 01:21:07;;;;;;;1.92;0.20;;;;;;;3.22;57.07;100291.84;5051869;28;20186;-50
2022/11/14 01:23:32;;;;;;;0.47;0.20;;;;;;;2.97;57.16;100261.13;5051877;28;20036;-52
2022/11/14 01:26:03;;;;;;;0.35;0.20;;;;;;;3.14;56.89;100297.50;5050958;28;20029;-50
2022/11/14 01:28:29;;;;;;;1.15;0.30;;;;;;;3.04;56.76;100296.13;5039441;28;20029;-54
2022/11/14 01:30:54;;;;;;;0.95;0.30;;;;;;;2.94;57.07;100295.66;5032418;28;20037;-54
2022/11/14 01:33:20;;;;;;;2.75;0.30;;;;;;;2.86;56.83;100288.91;5032207;28;20037;-53
2022/11/14 01:35:45;;;;;;;0.20;0.10;;;;;;;2.77;57.12;100304.28;5044287;28;20044;-52
2022/11/14 01:38:13;;;;;;;0.95;0.20;;;;;;;2.75;56.73;100316.72;5041750;28;20033;-55
2022/11/14 01:40:45;;;;;;;1.50;0.30;;;;;;;2.77;57.07;100314.88;5037863;28;20099;-55
2022/11/14 01:43:23;;;;;;;1.65;0.20;;;;;;;2.85;57.38;100318.06;5046498;28;20132;-54
2022/11/14 01:46:03;;;;;;;0.17;0.10;;;;;;;2.79;57.12;100315.66;5032541;28;20065;-51
2022/11/14 01:48:39;;;;;;;1.40;0.20;;;;;;;2.86;57.36;100330.34;5044562;28;20040;-55
2022/11/14 01:51:13;;;;;;;0.38;0.15;;;;;;;2.85;57.44;100331.28;5036339;28;20082;-55
2022/11/14 01:53:39;;;;;;;0.60;0.10;;;;;;;2.88;56.98;100339.09;5046239;28;20343;-54
2022/11/14 01:56:08;;;;;;;1.20;0.35;;;;;;;2.88;56.63;100349.66;5036901;28;20033;-51
2022/11/14 01:58:40;;;;;;;0.28;0.10;;;;;;;2.82;55.65;100328.75;5037575;28;20029;-51
2022/11/14 02:01:05;;;;;;;1.95;0.20;;;;;;;2.79;56.11;100350.91;5044544;28;20071;-54
2022/11/14 02:03:34;;;;;;;2.38;0.22;;;;;;;2.75;56.37;100345.81;5035681;28;20479;-53
2022/11/14 02:06:01;;;;;;;1.10;0.20;;;;;;;2.75;56.31;100359.88;5036714;28;20040;-51
2022/11/14 02:08:28;;;;;;;0.43;0.20;;;;;;;2.74;55.42;100352.84;5038824;28;20317;-53
2022/11/14 02:10:53;;;;;;;0.90;0.20;;;;;;;2.72;55.21;100347.66;5035767;28;20041;-51
2022/11/14 02:13:19;;;;;;;0.15;0.13;;;;;;;2.71;54.27;100360.91;5036080;28;20036;-52
2022/11/14 02:15:44;;;;;;;0.50;0.10;;;;;;;2.66;52.93;100361.13;5054059;28;20033;-53
2022/11/14 02:18:11;;;;;;;4.78;0.43;;;;;;;2.62;52.32;100361.28;5048687;28;20021;-53
2022/11/14 02:20:41;;;;;;;6.88;0.45;;;;;;;2.25;51.94;100332.69;5034755;28;20033;-50
2022/11/14 02:23:09;;;;;;;3.40;0.35;;;;;;;2.42;52.19;100377.00;5041198;28;20785;-52
2022/11/14 02:25:34;;;;;;;6.55;0.90;;;;;;;2.37;52.48;100373.66;5042575;28;20345;-51
2022/11/14 02:28:01;;;;;;;2.10;0.30;;;;;;;2.39;51.87;100369.16;5041082;28;20064;-54
2022/11/14 02:30:26;;;;;;;1.25;0.28;;;;;;;2.37;51.47;100371.00;5046773;28;20086;-54
2022/11/14 02:32:52;;;;;;;0.80;0.20;;;;;;;2.36;51.17;100368.44;5035578;28;20930;-50
2022/11/14 02:35:17;;;;;;;3.35;0.32;;;;;;;2.36;51.27;100368.44;5035775;28;20033;-50
2022/11/14 02:37:43;;;;;;;1.42;0.30;;;;;;;2.34;51.63;100363.19;5043195;28;20129;-54
2022/11/14 02:40:09;;;;;;;1.95;0.30;;;;;;;2.37;50.49;100384.22;5043853;28;20033;-53
2022/11/14 02:42:34;;;;;;;3.30;0.40;;;;;;;2.38;50.94;100382.44;5046176;28;20368;-53
2022/11/14 02:45:00;;;;;;;1.42;0.30;;;;;;;2.27;50.70;100364.34;5035383;28;20365;-54
2022/11/14 02:47:25;;;;;;;2.38;0.38;;;;;;;2.39;51.36;100389.47;5035234;28;20037;-52
2022/11/14 02:49:51;;;;;;;0.80;0.30;;;;;;;2.38;50.80;100388.59;5054094;28;20042;-52
2022/11/14 02:52:16;;;;;;;3.10;0.45;;;;;;;2.33;50.79;100384.41;5053644;28;20040;-54
2022/11/14 02:54:42;;;;;;;1.75;0.40;;;;;;;2.33;50.79;100389.69;5054493;28;20170;-56
2022/11/14 02:57:07;;;;;;;1.83;0.38;;;;;;;2.32;51.08;100382.69;5053515;28;20028;-54
2022/11/14 02:59:33;;;;;;;2.25;0.57;;;;;;;2.31;49.63;100386.25;5042379;28;20028;-55
2022/11/14 03:01:59;;;;;;;2.22;0.25;;;;;;;2.28;50.25;100395.16;5042971;28;20044;-54
2022/11/14 03:04:25;;;;;;;1.83;0.40;;;;;;;2.20;50.50;100386.66;5054025;28;20036;-55
2022/11/14 03:06:50;;;;;;;1.42;0.32;;;;;;;2.16;49.98;100391.16;5054362;28;20072;-54
2022/11/14 03:09:17;;;;;;;3.10;0.45;;;;;;;2.15;50.15;100398.22;5040175;28;20112;-53
2022/11/14 03:11:42;;;;;;;4.22;0.30;;;;;;;2.10;50.28;100400.19;5035828;28;20131;-51
2022/11/14 03:14:08;;;;;;;3.22;0.60;;;;;;;2.11;50.43;100403.69;5054522;28;20044;-54
2022/11/14 03:16:33;;;;;;;1.48;0.35;;;;;;;2.18;50.27;100399.06;5054954;28;20033;-56
2022/11/14 03:18:59;;;;;;;2.78;0.40;;;;;;;2.25;49.67;100413.75;5042541;28;20428;-55
2022/11/14 03:21:24;;;;;;;2.67;0.40;;;;;;;2.28;50.00;100405.72;5034872;28;20463;-55
2022/11/14 03:23:49;;;;;;;4.35;0.60;;;;;;;2.25;49.83;100408.47;5042837;28;20065;-57
2022/11/14 03:26:15;;;;;;;3.55;0.60;;;;;;;2.32;49.73;100396.75;5053180;28;20126;-58
2022/11/14 03:28:42;;;;;;;3.83;0.50;;;;;;;2.30;49.26;100411.81;5042610;28;20059;-55
2022/11/14 03:31:10;;;;;;;1.55;0.55;;;;;;;2.29;49.44;100415.38;5049136;28;20095;-55
2022/11/14 03:33:36;;;;;;;4.53;0.50;;;;;;;2.41;48.42;100412.28;5050460;28;20367;-57
2022/11/14 03:36:03;;;;;;;3.17;0.57;;;;;;;2.27;48.90;100418.03;5034368;28;20038;-52
2022/11/14 03:38:29;;;;;;;1.40;0.30;;;;;;;2.25;48.74;100425.16;5041410;28;20091;-54
2022/11/14 03:40:58;;;;;;;2.33;0.30;;;;;;;2.23;48.87;100420.88;5054473;28;20112;-54
2022/11/14 03:43:24;;;;;;;1.08;0.20;;;;;;;2.21;48.99;100428.00;5037636;28;20411;-50
2022/11/14 03:45:50;;;;;;;1.92;0.57;;;;;;;2.22;49.02;100427.94;5034206;28;20124;-53
2022/11/14 03:48:15;;;;;;;4.78;0.50;;;;;;;2.27;49.57;100430.41;5047715;28;20187;-51
2022/11/14 03:50:42;;;;;;;5.97;0.43;;;;;;;2.28;48.83;100437.41;5034294;28;20108;-56
2022/11/14 03:53:08;;;;;;;1.20;0.50;;;;;;;2.33;49.19;100432.81;5035370;28;20044;-59
2022/11/14 03:55:33;;;;;;;1.73;0.30;;;;;;;2.32;49.09;100436.38;5034185;28;20025;-49
2022/11/14 03:57:59;;;;;;;2.90;0.50;;;;;;;2.34;49.35;100431.06;5041428;28;20370;-57
2022/11/14 04:00:27;;;;;;;3.72;0.50;;;;;;;2.35;48.88;100425.69;5034150;28;20045;-50
2022/11/14 04:02:54;;;;;;;1.75;0.40;;;;;;;2.36;48.84;100443.28;5033948;28;20033;-53
2022/11/14 04:05:20;;;;;;;4.55;0.60;;;;;;;2.30;48.94;100432.94;5034226;28;20091;-55
2022/11/14 04:07:46;;;;;;;1.13;0.43;;;;;;;2.20;48.39;100429.75;5051549;28;20036;-53
2022/11/14 04:10:11;;;;;;;3.70;0.70;;;;;;;2.10;48.63;100442.44;5042272;28;20036;-53
2022/11/14 04:12:38;;;;;;;1.77;0.52;;;;;;;2.13;49.35;100444.13;5053459;28;20124;-50
2022/11/14 04:15:04;;;;;;;3.35;0.70;;;;;;;2.13;48.81;100444.13;5052888;28;20112;-54
2022/11/14 04:17:30;;;;;;;1.85;0.45;;;;;;;2.00;49.06;100415.50;5052616;28;20094;-54
2022/11/14 04:19:56;;;;;;;3.08;0.50;;;;;;;2.10;49.20;100428.38;5034867;28;20036;-55
2022/11/14 04:22:21;;;;;;;4.53;0.60;;;;;;;2.07;49.13;100442.56;5033391;28;20029;-53
2022/11/14 04:24:47;;;;;;;2.95;0.50;;;;;;;1.97;48.50;100454.38;5033223;28;20352;-54
2022/11/14 04:27:12;;;;;;;4.30;0.50;;;;;;;1.83;48.87;100450.41;5034183;28;20367;-52
2022/11/14 04:29:37;;;;;;;3.55;0.55;;;;;;;1.76;49.18;100459.47;5049366;28;20037;-55
2022/11/14 04:32:03;;;;;;;2.70;0.50;;;;;;;1.77;49.51;100458.56;5051953;28;20095;-55
2022/11/14 04:34:29;;;;;;;4.22;0.60;;;;;;;1.70;49.83;100443.84;5039992;28;20084;-55
2022/11/14 04:36:54;;;;;;;3.80;0.60;;;;;;;1.51;49.81;100431.25;5053073;28;20036;-55
2022/11/14 04:39:19;;;;;;;4.03;0.63;;;;;;;1.63;50.14;100474.84;5046118;28;20109;-54
2022/11/14 04:41:45;;;;;;;2.70;0.63;;;;;;;1.61;49.82;100470.53;5041428;28;20034;-52
2022/11/14 04:44:10;;;;;;;1.77;0.80;;;;;;;1.62;49.86;100467.84;5042571;28;20049;-59
2022/11/14 04:46:36;;;;;;;2.00;0.73;;;;;;;1.61;50.08;100483.72;5049455;28;20037;-56
2022/11/14 04:49:01;;;;;;;4.72;0.80;;;;;;;1.59;50.13;100483.78;5040217;28;20426;-52
2022/11/14 04:51:27;;;;;;;6.22;0.77;;;;;;;1.56;50.26;100481.22;5040631;28;20486;-56
2022/11/14 04:53:52;;;;;;;5.32;0.88;;;;;;;1.57;50.36;100477.72;5032859;28;20021;-54
2022/11/14 04:56:18;;;;;;;2.85;0.80;;;;;;;1.59;50.71;100489.06;5051018;28;20024;-55
2022/11/14 04:58:43;;;;;;;1.95;0.60;;;;;;;1.55;50.08;100488.28;5052740;28;20079;-67
2022/11/14 05:01:10;;;;;;;2.58;0.50;;;;;;;1.52;50.56;100492.81;5031933;28;20038;-54
2022/11/14 05:03:35;;;;;;;4.28;0.68;;;;;;;1.45;50.81;100500.06;5038052;28;20094;-54
2022/11/14 05:06:02;;;;;;;3.47;0.88;;;;;;;1.50;50.87;100508.69;5039843;28;20838;-61
2022/11/14 05:08:28;;;;;;;6.28;0.93;;;;;;;1.50;50.58;100506.06;5032763;28;20033;-62
2022/11/14 05:10:53;;;;;;;1.73;0.70;;;;;;;1.51;50.86;100513.06;5034112;28;20168;-61
2022/11/14 05:13:19;;;;;;;2.58;0.65;;;;;;;1.47;51.07;100510.56;5052606;28;20040;-63
2022/11/14 05:15:44;;;;;;;6.78;1.05;;;;;;;1.48;51.54;100513.16;5051410;28;20385;-61
2022/11/14 05:18:09;;;;;;;4.10;0.70;;;;;;;1.51;50.71;100518.34;5052812;28;20075;-62
2022/11/14 05:20:35;;;;;;;3.88;1.00;;;;;;;1.59;51.13;100523.38;5037084;28;20076;-65
2022/11/14 05:23:01;;;;;;;6.50;0.98;;;;;;;1.43;50.78;100521.22;5031942;28;20375;-63
2022/11/14 05:25:26;;;;;;;5.03;0.80;;;;;;;1.51;50.99;100536.81;5032380;28;20029;-58
2022/11/14 05:27:51;;;;;;;5.35;1.05;;;;;;;1.65;50.61;100535.50;5032381;28;20047;-59
2022/11/14 05:30:17;;;;;;;9.45;1.15;;;;;;;2.01;50.72;100559.00;5031110;28;20037;-59
2022/11/14 05:32:43;;;;;;;3.67;1.15;;;;;;;2.49;48.68;100512.41;5052410;28;20039;-58
2022/11/14 05:35:09;;;;;;;6.43;1.30;;;;;;;3.40;46.74;100549.63;5052254;28;20087;-56
2022/11/14 05:37:34;;;;;;;5.55;1.10;;;;;;;4.13;44.91;100542.25;5052095;28;20044;-61
2022/11/14 05:40:00;;;;;;;3.60;1.17;;;;;;;4.93;43.50;100560.03;5051015;28;20107;-57
2022/11/14 05:42:29;;;;;;;1.55;0.80;;;;;;;5.73;41.41;100564.28;5050972;28;20384;-60
2022/11/14 05:44:54;;;;;;;7.10;1.25;;;;;;;5.67;40.73;100563.72;5052248;28;20539;-59
2022/11/14 05:47:19;;;;;;;4.13;1.08;;;;;;;5.17;41.35;100572.19;5052139;28;20108;-59
2022/11/14 05:49:45;;;;;;;4.82;1.27;;;;;;;4.37;42.78;100568.66;5051889;28;20056;-61
2022/11/14 05:52:10;;;;;;;7.65;1.35;;;;;;;3.78;43.98;100581.66;5033461;28;20029;-60
2022/11/14 05:54:36;;;;;;;3.67;1.40;;;;;;;3.37;45.02;100573.56;5032107;28;20440;-57
2022/11/14 05:57:02;;;;;;;5.10;1.02;;;;;;;3.25;45.04;100575.75;5032226;28;20036;-59
2022/11/14 05:59:27;;;;;;;6.07;1.30;;;;;;;3.51;44.47;100586.28;5031838;28;20112;-61
2022/11/14 06:01:53;;;;;;;6.93;1.35;;;;;;;4.35;43.27;100590.84;5047566;28;20400;-59
2022/11/14 06:04:18;;;;;;;3.20;0.90;;;;;;;6.33;38.88;100572.91;5042976;28;20532;-59
2022/11/14 06:06:44;;;;;;;5.30;1.20;;;;;;;8.60;34.47;100560.44;5032313;28;20404;-59
2022/11/14 06:09:10;;;;;;;4.75;1.00;;;;;;;10.59;30.93;100585.22;5032565;28;20554;-60
2022/11/14 06:11:35;;;;;;;3.10;1.10;;;;;;;12.23;28.92;100590.59;5044555;28;20052;-61
2022/11/14 06:14:01;;;;;;;5.78;2.05;;;;;;;13.84;26.20;100582.53;5051959;28;20033;-61
2022/11/14 06:16:27;;;;;;;9.77;2.75;;;;;;;14.43;25.17;100585.75;5051894;28;20061;-60
2022/11/14 06:18:52;;;;;;;7.35;2.33;;;;;;;15.07;24.10;100587.47;5051632;28;20136;-61
2022/11/14 06:21:20;;;;;;;5.68;2.15;;;;;;;15.86;22.92;100593.09;5038898;28;20108;-60
2022/11/14 06:23:46;;;;;;;4.60;1.15;;;;;;;16.54;22.12;100591.47;5031733;28;20374;-61
2022/11/14 06:26:22;;;;;;;10.02;2.08;;;;;;;17.44;21.68;100596.47;5031709;28;20078;-60
2022/11/14 06:28:49;;;;;;;4.97;1.83;;;;;;;17.79;20.27;100592.16;5050450;28;20403;-60
2022/11/14 06:31:14;;;;;;;7.45;1.98;;;;;;;18.39;19.62;100606.16;5040829;28;20033;-60
2022/11/14 06:33:40;;;;;;;9.98;2.10;;;;;;;19.45;18.65;100600.75;5031377;28;20028;-61
2022/11/14 06:36:07;;;;;;;5.55;1.67;;;;;;;20.17;17.93;100610.34;5031862;28;20064;-60
2022/11/14 06:38:34;;;;;;;6.95;1.42;;;;;;;20.64;17.33;100620.56;5032397;28;20045;-60
2022/11/14 06:41:12;;;;;;;5.05;1.38;;;;;;;21.25;17.44;100613.88;5043999;28;20041;-61
2022/11/14 06:43:40;;;;;;;9.98;1.58;;;;;;;21.69;16.30;100628.00;5035137;28;20067;-61
2022/11/14 06:46:07;;;;;;;9.02;1.83;;;;;;;21.47;16.11;100630.47;5035321;28;20049;-61
2022/11/14 06:48:33;;;;;;;5.30;1.80;;;;;;;21.49;15.65;100637.44;5038031;28;20029;-61
2022/11/14 06:51:00;;;;;;;6.50;1.20;;;;;;;21.39;16.04;100625.03;5046540;28;20092;-60
2022/11/14 06:53:28;;;;;;;6.53;1.88;;;;;;;21.69;15.58;100626.16;5034413;28;20031;-57
2022/11/14 06:55:53;;;;;;;4.03;1.50;;;;;;;21.70;15.26;100626.97;5035131;28;20532;-69
2022/11/14 06:58:19;;;;;;;7.78;1.70;;;;;;;21.85;14.90;100625.22;5040938;28;20115;-60
2022/11/14 07:00:44;;;;;;;5.82;1.20;;;;;;;21.88;15.05;100596.75;5050099;28;20031;-68
2022/11/14 07:03:10;;;;;;;12.55;1.70;;;;;;;21.81;14.94;100629.31;5055088;28;20033;-68
2022/11/14 07:05:35;;;;;;;11.40;1.75;;;;;;;21.77;15.38;100638.91;5039959;28;20115;-67
2022/11/14 07:08:01;;;;;;;7.80;1.80;;;;;;;21.67;14.79;100617.31;5034627;28;20052;-67
2022/11/14 07:10:26;;;;;;;5.95;1.20;;;;;;;20.94;15.06;100633.66;5036497;28;20025;-66
2022/11/14 07:12:51;;;;;;;7.45;1.52;;;;;;;20.76;15.40;100633.81;5054422;28;20028;-67
2022/11/14 07:15:17;;;;;;;8.48;1.65;;;;;;;20.83;15.42;100639.47;5033193;28;20452;-66
2022/11/14 07:17:42;;;;;;;6.38;1.90;;;;;;;20.08;15.64;100644.81;5034702;28;20042;-67
2022/11/14 07:20:08;;;;;;;5.40;1.38;;;;;;;18.16;17.07;100651.84;5035220;28;20052;-67
2022/11/14 07:22:34;;;;;;;5.03;1.67;;;;;;;15.87;19.14;100656.91;5052027;28;20359;-65
2022/11/14 07:24:59;;;;;;;7.50;1.45;;;;;;;13.84;21.36;100656.09;5034258;28;20359;-63
2022/11/14 07:27:24;;;;;;;5.30;1.40;;;;;;;11.88;23.66;100664.66;5040419;28;20028;-63
2022/11/14 07:29:50;;;;;;;6.93;1.52;;;;;;;10.13;26.09;100664.97;5054291;28;20364;-66
2022/11/14 07:32:15;;;;;;;6.65;1.60;;;;;;;8.65;27.93;100677.63;5050328;28;20033;-62
2022/11/14 07:34:40;;;;;;;8.40;1.52;;;;;;;7.42;29.98;100671.09;5053192;28;20040;-64
2022/11/14 07:37:06;;;;;;;7.28;1.27;;;;;;;6.56;31.62;100674.63;5053971;28;20032;-64
2022/11/14 07:39:31;;;;;;;8.48;1.45;;;;;;;6.01;32.50;100684.34;5053550;28;20045;-61
2022/11/14 07:41:57;;;;;;;8.10;1.60;;;;;;;5.41;34.04;100695.94;5053063;28;20035;-62
2022/11/14 07:44:22;;;;;;;8.13;2.10;;;;;;;4.94;34.59;100681.16;5053395;28;20033;-63
2022/11/14 07:46:49;;;;;;;8.45;2.13;;;;;;;4.73;35.91;100694.47;5038295;28;20049;-63
2022/11/14 07:49:14;;;;;;;6.80;2.45;;;;;;;4.37;36.48;100695.94;5039181;28;20032;-62
2022/11/14 07:51:40;;;;;;;8.40;1.77;;;;;;;4.27;37.16;100699.84;5051560;28;20025;-61
2022/11/14 07:54:05;;;;;;;6.65;1.83;;;;;;;4.16;36.86;100692.34;5048343;28;20030;-56
2022/11/14 07:56:30;;;;;;;5.38;2.20;;;;;;;4.05;37.07;100703.34;5033249;28;20033;-61
2022/11/14 07:58:57;;;;;;;12.32;3.05;;;;;;;3.84;37.65;100697.13;5046687;28;20044;-59
2022/11/14 08:01:22;;;;;;;12.07;2.63;;;;;;;3.70;38.04;100702.94;5043382;28;20060;-61
2022/11/14 08:03:47;;;;;;;10.88;3.30;;;;;;;3.58;38.60;100694.53;5053852;28;20455;-61
2022/11/14 08:06:15;;;;;;;8.82;2.60;;;;;;;3.63;38.64;100710.25;5053475;28;20033;-61
2022/11/14 08:08:41;;;;;;;7.45;2.20;;;;;;;3.33;38.38;100661.94;5037604;28;20029;-56
2022/11/14 08:11:06;;;;;;;6.53;2.03;;;;;;;3.54;38.48;100703.50;5042302;28;20021;-61
2022/11/14 08:13:32;;;;;;;8.45;1.55;;;;;;;3.62;38.57;100699.69;5032651;28;20514;-60
2022/11/14 08:15:59;;;;;;;5.28;1.30;;;;;;;3.65;38.77;100697.81;5031645;28;20036;-60
2022/11/14 08:18:24;;;;;;;5.90;1.83;;;;;;;3.67;38.96;100708.38;5049249;28;20146;-58
2022/11/14 08:20:50;;;;;;;5.25;1.50;;;;;;;3.49;39.19;100701.94;5048726;28;20452;-62
2022/11/14 08:23:15;;;;;;;10.00;1.80;;;;;;;3.52;39.34;100707.16;5051915;28;20104;-59
2022/11/14 08:25:41;;;;;;;8.60;1.70;;;;;;;3.51;39.12;100708.06;5048237;28;20045;-53
2022/11/14 08:28:07;;;;;;;5.35;1.23;;;;;;;3.51;39.18;100716.88;5043901;28;20156;-55
2022/11/14 08:30:32;;;;;;;5.63;1.40;;;;;;;3.36;39.46;100706.81;5033796;28;20067;-56
2022/11/14 08:33:02;;;;;;;6.07;1.50;;;;;;;3.35;39.76;100718.34;5045030;28;20060;-56
2022/11/14 08:35:28;;;;;;;9.93;1.77;;;;;;;3.35;40.40;100716.56;5053141;28;20459;-58
2022/11/14 08:37:53;;;;;;;8.93;1.85;;;;;;;3.33;39.51;100712.22;5049276;28;20029;-59
2022/11/14 08:40:19;;;;;;;8.75;2.50;;;;;;;3.32;39.27;100708.75;5044623;28;20037;-55
2022/11/14 08:42:44;;;;;;;14.38;2.35;;;;;;;3.24;39.98;100698.44;5047490;28;20045;-56
2022/11/14 08:45:10;;;;;;;6.38;1.50;;;;;;;3.25;40.09;100708.09;5046671;28;20033;-56
2022/11/14 08:47:35;;;;;;;6.20;1.52;;;;;;;3.38;39.87;100702.38;5051868;28;20032;-57
2022/11/14 08:50:01;;;;;;;6.70;2.10;;;;;;;3.41;40.55;100718.13;5050592;28;20032;-58
2022/11/14 08:52:28;;;;;;;6.97;1.50;;;;;;;3.20;39.58;100686.22;5052677;28;20044;-55
2022/11/14 08:54:53;;;;;;;7.47;1.80;;;;;;;3.28;39.59;100707.97;5052422;28;20084;-56
2022/11/14 08:57:19;;;;;;;9.57;2.33;;;;;;;3.06;40.58;100680.56;5051749;28;20055;-56
2022/11/14 08:59:44;;;;;;;10.63;2.40;;;;;;;3.27;41.11;100705.41;5049788;28;20029;-61
2022/11/14 09:02:12;;;;;;;11.18;2.40;;;;;;;3.27;40.94;100719.47;5048759;28;20025;-58
2022/11/14 09:04:38;;;;;;;9.02;1.67;;;;;;;3.22;41.26;100713.50;5047430;28;20029;-52
2022/11/14 09:07:03;;;;;;;7.38;2.40;;;;;;;3.14;41.16;100699.69;5052355;28;20087;-56
2022/11/14 09:09:29;;;;;;;9.07;2.00;;;;;;;3.16;40.65;100725.16;5045639;28;20100;-55
2022/11/14 09:11:55;;;;;;;13.20;2.13;;;;;;;3.08;41.32;100714.00;5045897;28;20514;-56
2022/11/14 09:14:20;;;;;;;16.58;2.50;;;;;;;2.90;41.19;100697.00;5032320;28;20049;-59
2022/11/14 09:16:46;;;;;;;6.68;2.08;;;;;;;3.01;41.75;100712.47;5034986;28;20033;-57
2022/11/14 09:19:12;;;;;;;6.50;1.67;;;;;;;2.98;41.55;100713.44;5039292;28;20072;-56
2022/11/14 09:21:37;;;;;;;6.78;1.80;;;;;;;2.98;41.52;100725.78;5051840;28;20048;-65
2022/11/14 09:24:03;;;;;;;5.93;2.10;;;;;;;3.00;41.79;100721.31;5052556;28;20427;-60
2022/11/14 09:26:28;;;;;;;4.07;1.50;;;;;;;3.02;41.92;100716.84;5052218;28;20384;-57
2022/11/14 09:28:54;;;;;;;16.60;4.10;;;;;;;2.80;41.49;100691.16;5051047;28;20043;-58
2022/11/14 09:31:19;;;;;;;10.93;3.55;;;;;;;2.87;41.88;100715.59;5052774;28;20375;-65
2022/11/14 09:33:45;;;;;;;13.25;4.30;;;;;;;2.87;42.20;100713.81;5034512;28;20028;-60
2022/11/14 09:36:14;;;;;;;7.00;2.70;;;;;;;2.78;42.54;100713.25;5032474;28;20025;-57
2022/11/14 09:38:42;;;;;;;7.72;2.40;;;;;;;2.76;42.49;100717.75;5032653;28;20487;-64
2022/11/14 09:41:07;;;;;;;4.32;1.80;;;;;;;2.73;42.95;100721.34;5051764;28;20444;-62
2022/11/14 09:43:52;;;;;;;14.02;2.35;;;;;;;2.73;42.58;100716.94;5040408;28;20059;-63
2022/11/14 09:46:20;;;;;;;7.10;2.28;;;;;;;2.67;43.11;100713.63;5033074;28;20051;-56
2022/11/14 09:48:46;;;;;;;9.23;2.25;;;;;;;2.64;43.26;100719.00;5031755;28;20409;-52
2022/11/14 09:51:19;;;;;;;7.57;1.40;;;;;;;2.63;42.81;100728.72;5032026;28;20040;-58
2022/11/14 09:54:17;;;;;;;3.65;1.50;;;;;;;2.66;43.40;100717.19;5032160;28;20022;-56
2022/11/14 09:56:42;;;;;;;5.35;1.60;;;;;;;2.61;43.17;100725.25;5032239;28;20100;-58
2022/11/14 09:59:10;;;;;;;7.15;2.30;;;;;;;2.64;42.96;100719.88;5041533;28;20110;-62
2022/11/14 10:01:41;;;;;;;8.43;2.00;;;;;;;2.72;43.41;100720.50;5048015;28;20036;-61
2022/11/14 10:04:37;;;;;;;6.20;1.63;;;;;;;2.85;43.13;100715.66;5042110;28;20048;-63
2022/11/14 10:07:18;;;;;;;5.65;1.90;;;;;;;2.86;43.31;100711.22;5032995;28;20037;-61
2022/11/14 10:10:18;;;;;;;6.20;1.83;;;;;;;2.73;43.06;100681.66;5031661;28;20100;-63
2022/11/14 10:13:05;;;;;;;10.05;1.52;;;;;;;2.96;43.37;100710.00;5034395;28;20049;-62
2022/11/14 10:15:57;;;;;;;7.35;1.58;;;;;;;2.94;43.13;100703.00;5032634;28;20037;-62
2022/11/14 10:18:25;;;;;;;6.80;1.92;;;;;;;2.88;43.42;100704.09;5050327;28;20033;-61
2022/11/14 10:20:58;;;;;;;7.85;1.95;;;;;;;2.86;43.53;100714.72;5049212;28;20037;-62
2022/11/14 10:23:45;;;;;;;7.05;1.60;;;;;;;2.88;43.13;100714.66;5050497;28;20037;-62
2022/11/14 10:26:31;;;;;;;3.22;1.40;;;;;;;2.96;42.95;100717.06;5051520;28;20029;-60
2022/11/14 10:29:30;;;;;;;6.57;1.75;;;;;;;2.96;43.46;100707.34;5043765;28;20212;-57
2022/11/14 10:32:17;;;;;;;4.63;1.42;;;;;;;2.93;42.63;100702.16;5044131;28;20057;-59
2022/11/14 10:34:55;;;;;;;7.45;2.03;;;;;;;2.92;43.00;100700.44;5055285;28;20932;-58
2022/11/14 10:37:40;;;;;;;6.95;2.42;;;;;;;2.92;42.95;100696.91;5055458;28;20037;-56
2022/11/14 10:40:23;;;;;;;9.60;3.38;;;;;;;2.97;43.00;100693.19;5055266;28;20044;-56
2022/11/14 10:42:55;;;;;;;11.70;2.45;;;;;;;2.95;43.55;100705.63;5054120;28;20472;-58
2022/11/14 10:45:27;;;;;;;8.52;2.85;;;;;;;2.98;43.00;100705.50;5055538;28;20068;-60
2022/11/14 10:47:59;;;;;;;9.07;2.50;;;;;;;2.94;43.30;100698.59;5055546;28;20054;-61
2022/11/14 10:50:36;;;;;;;6.68;2.22;;;;;;;2.89;42.98;100691.72;5055186;28;20033;-62
2022/11/14 10:53:10;;;;;;;6.30;2.28;;;;;;;2.93;43.48;100693.34;5055295;28;20032;-56
2022/11/14 10:55:35;;;;;;;6.63;2.60;;;;;;;2.93;43.71;100688.94;5055307;28;20068;-57
2022/11/14 10:58:00;;;;;;;8.80;2.63;;;;;;;2.99;43.67;100698.41;5055267;28;20048;-58
2022/11/14 11:00:26;;;;;;;6.97;2.75;;;;;;;2.82;43.87;100667.28;5054826;28;20290;-57
2022/11/14 11:02:56;;;;;;;8.00;2.15;;;;;;;2.99;43.94;100694.00;5055268;28;20408;-59
2022/11/14 11:05:29;;;;;;;5.38;2.10;;;;;;;2.81;44.08;100661.13;5054628;28;20033;-58
2022/11/14 11:13:35;;;;;;;7.35;2.70;;;;;;;2.99;44.10;100699.28;5055140;28;20043;-58
2022/11/14 11:16:04;;;;;;;11.20;2.38;;;;;;;3.00;44.01;100693.09;5053710;28;20033;-55
2022/11/14 11:18:32;;;;;;;8.15;2.40;;;;;;;2.98;44.10;100689.63;5040634;28;20120;-57
2022/11/14 11:21:02;;;;;;;4.88;1.83;;;;;;;3.00;44.25;100693.09;5038339;28;20570;-60
2022/11/14 11:23:27;;;;;;;4.78;2.00;;;;;;;3.00;43.95;100685.16;5053628;28;20498;-57
2022/11/14 11:26:04;;;;;;;7.28;1.90;;;;;;;3.08;43.74;100697.25;5054345;28;20064;-57
2022/11/14 11:28:32;;;;;;;10.15;1.63;;;;;;;3.01;43.91;100692.16;5054196;28;20099;-61
2022/11/14 11:31:04;;;;;;;5.18;1.60;;;;;;;3.03;43.37;100699.19;5051259;28;20429;-61
2022/11/14 11:33:32;;;;;;;5.80;1.65;;;;;;;2.81;43.33;100665.53;5039872;28;20033;-58
2022/11/14 11:36:05;;;;;;;8.52;1.80;;;;;;;2.96;43.95;100698.53;5034243;28;20029;-61
2022/11/14 11:38:31;;;;;;;5.35;1.38;;;;;;;2.84;43.65;100702.47;5034126;28;20356;-61